Greenbush, Maine
Current Conditions -  °F | °C
As of 2:53 PM on Monday 26 Jan 2015 (Local Time) from KBGR Reporting Station
Broken Clouds Broken Clouds  
Wind Chill:   Ceiling: 20000
Heat Index: 12°   Visibility: 10mi
Dew Point: -5°   Wind: 8mph
Humidity: 46%   Direction: 350°N
Pressure: 30.19"   Gusts: NA
Location:  45.0802°N, 68.5883°W
Report Text: KBGR 261953Z 35007KT 10SM BKN200 M11/M21 A3019 RMK AO2 SLP228 T11111206
Loading
Personal Weather Stations






























Interactive Weather Map New forecast layout! Learn more

10-Day Weather Forecast

Advertisements
Track Severe Weather on mobile